logo
Search for airport 
image banner adimage banner adimage banner ad
image banner ad

YFWV - Freshwater Valley

Located in Redlynch, Australia

ICAO - , IATA -

Data provided by Airmate  

General information

Coordinates: S16°54'52" E145°42'13"
Elevation is 125 feet MSL.
Magnetic variation is 7° East
View others Airports in Queensland

Operational data

Special qualification required
Current time UTC:
Current local time:
Weather at : YBCS - Cairns / Cairns Intl ( 6 km )
METAR: YBCS 141730Z AUTO 00000KT 9999 // NCD 17/16 Q1012 RF00.0/000.0
TAF: TAF YBCS 141704Z 1418/1518 21004KT 9999 SCT040 FM150200 05010KT 9999 FEW030 FM150700 18009KT 9999 SCT025 FM151100 20005KT 9999 SCT020
View NOTAMs / SUP AIP / TFR affecting this airport [VIEW]
Communications frequencies: [VIEW]

Runways:

Airport contact information

Address: Redlynch Australia

Satellite view of YFWV